Albertville, Wisconsin
Current Conditions -  °F | °C
As of 7:15 PM on Sunday 21 Dec 2014 (Local Time) from KLUM Reporting Station
Haze Haze  
Wind Chill: 32°   Ceiling: 700
Heat Index: 37°   Visibility: 5mi
Dew Point: 37°   Wind: 7mph
Humidity: 99%   Direction: 150°SSE
Pressure: 29.79"   Gusts: NA
Location:  45.0099°N, 91.7075°W
Report Text: KLUM 220115Z AUTO 15006KT 5SM BR OVC007 03/03 A2979 RMK AO2 T00280027
Loading
Personal Weather Stations






























Interactive Weather Map New forecast layout! Learn more

10-Day Weather Forecast

Advertisements
Track Severe Weather on mobile